createdAt,value
2022-09-02T00:01:02.724Z,54.86
2022-09-02T00:02:04.983Z,55.05
2022-09-02T00:03:07.443Z,55.03
2022-09-02T00:04:13.081Z,55.03
2022-09-02T00:05:17.372Z,54.85
2022-09-02T00:06:20.558Z,54.85
2022-09-02T00:07:22.603Z,55.12
2022-09-02T00:08:24.842Z,55.08
2022-09-02T00:09:27.453Z,55.11
2022-09-02T00:10:30.838Z,55.01
2022-09-02T00:11:34.538Z,54.83
2022-09-02T00:12:37.205Z,55.07
2022-09-02T00:13:39.440Z,55.06
2022-09-02T00:14:43.570Z,55.33
2022-09-02T00:15:47.059Z,55.21
2022-09-02T00:16:49.445Z,55.25
2022-09-02T00:17:51.741Z,55.20
2022-09-02T00:18:54.146Z,55.26
2022-09-02T00:19:56.379Z,55.12
2022-09-02T00:20:58.970Z,55.19
2022-09-02T00:22:02.883Z,55.19
2022-09-02T00:23:06.815Z,55.53
2022-09-02T00:24:09.635Z,55.27
2022-09-02T00:25:12.193Z,54.85
2022-09-02T00:26:14.888Z,55.27
2022-09-02T00:27:17.072Z,55.51
2022-09-02T00:28:20.276Z,55.43
2022-09-02T00:29:23.498Z,55.47
2022-09-02T00:30:26.836Z,55.59
2022-09-02T00:31:29.116Z,55.17
2022-09-02T00:32:31.543Z,55.60
2022-09-02T00:33:33.931Z,55.29
2022-09-02T00:34:36.637Z,55.44
2022-09-02T00:35:39.048Z,55.43
2022-09-02T00:36:41.301Z,55.40
2022-09-02T00:37:43.425Z,55.76
2022-09-02T00:38:46.472Z,55.46
2022-09-02T00:39:48.577Z,55.48
2022-09-02T00:40:50.843Z,55.56
2022-09-02T00:41:53.304Z,55.78
2022-09-02T00:42:57.243Z,55.92
2022-09-02T00:44:03.286Z,55.78
2022-09-02T00:45:07.868Z,55.81
2022-09-02T00:46:13.183Z,55.69
2022-09-02T00:47:15.841Z,55.87
2022-09-02T00:48:18.422Z,56.07
2022-09-02T00:49:27.101Z,56.29
2022-09-02T00:50:33.145Z,56.30
2022-09-02T00:51:54.565Z,56.33
2022-09-02T00:53:00.313Z,56.37
2022-09-02T00:54:03.956Z,56.12
2022-09-02T00:55:12.489Z,55.92
2022-09-02T00:56:23.255Z,56.31
2022-09-02T00:57:28.993Z,56.58
2022-09-02T00:58:34.560Z,56.84
2022-09-02T00:59:57.095Z,56.62
2022-09-02T01:01:00.411Z,56.67
2022-09-02T01:02:02.742Z,56.88
2022-09-02T01:03:09.427Z,56.59
2022-09-02T01:04:12.205Z,56.68
2022-09-02T01:05:18.456Z,56.89
2022-09-02T01:06:24.121Z,56.71
2022-09-02T01:07:29.699Z,57.04
2022-09-02T01:08:37.075Z,57.03
2022-09-02T01:09:39.603Z,56.92
2022-09-02T01:10:42.838Z,56.89
2022-09-02T01:11:48.123Z,57.47
2022-09-02T01:12:59.154Z,56.87
2022-09-02T01:14:01.487Z,57.11
2022-09-02T01:15:06.223Z,57.06
2022-09-02T01:16:18.528Z,57.03
2022-09-02T01:17:21.691Z,57.55
2022-09-02T01:18:26.792Z,57.13
2022-09-02T01:19:38.136Z,57.42
2022-09-02T01:20:40.441Z,57.41
2022-09-02T01:21:48.410Z,57.88
2022-09-02T01:22:51.871Z,57.54
2022-09-02T01:23:56.163Z,57.76
2022-09-02T01:25:01.965Z,57.99
2022-09-02T01:26:04.508Z,57.58
2022-09-02T01:27:06.703Z,57.65
2022-09-02T01:28:14.259Z,57.40
2022-09-02T01:29:16.453Z,57.32
2022-09-02T01:30:24.074Z,57.50
2022-09-02T01:31:26.323Z,57.41
2022-09-02T01:32:29.296Z,57.50
2022-09-02T01:33:31.796Z,57.88
2022-09-02T01:34:34.288Z,57.58
2022-09-02T01:35:38.524Z,57.18
2022-09-02T01:36:42.079Z,57.91
2022-09-02T01:37:55.702Z,57.67
2022-09-02T01:38:50.068Z,57.49
2022-09-02T01:39:53.597Z,57.36
2022-09-02T01:40:56.613Z,57.54
2022-09-02T01:41:59.457Z,57.61
2022-09-02T01:43:06.897Z,57.60
2022-09-02T01:44:09.481Z,57.79
2022-09-02T01:45:12.237Z,57.87
2022-09-02T01:46:16.408Z,57.90
2022-09-02T01:47:22.476Z,58.25
2022-09-02T01:48:25.342Z,58.25
2022-09-02T01:49:27.755Z,58.46
2022-09-02T01:50:31.358Z,58.30
2022-09-02T01:51:33.812Z,58.31
2022-09-02T01:52:36.331Z,58.46
2022-09-02T01:53:38.491Z,58.62
2022-09-02T01:54:41.510Z,58.67
2022-09-02T01:55:44.372Z,58.93
2022-09-02T01:56:46.958Z,58.94
2022-09-02T01:57:49.005Z,59.28
2022-09-02T01:58:51.072Z,59.76
2022-09-02T01:59:56.364Z,60.04
2022-09-02T02:00:58.659Z,60.58
2022-09-02T02:02:04.075Z,61.29
2022-09-02T02:03:07.752Z,60.95
2022-09-02T02:04:13.322Z,60.82
2022-09-02T02:05:15.569Z,60.68
2022-09-02T02:06:18.776Z,61.37
2022-09-02T02:07:23.768Z,60.96
2022-09-02T02:08:26.463Z,60.43
2022-09-02T02:09:28.629Z,60.48
2022-09-02T02:10:32.785Z,61.04
2022-09-02T02:11:36.029Z,61.58
2022-09-02T02:12:39.816Z,62.65
2022-09-02T02:13:42.110Z,62.24
2022-09-02T02:14:45.310Z,62.18
2022-09-02T02:15:47.517Z,62.28
2022-09-02T02:16:50.858Z,62.15
2022-09-02T02:17:53.209Z,62.35
2022-09-02T02:18:55.556Z,62.30
2022-09-02T02:19:57.724Z,61.98
2022-09-02T02:21:00.271Z,61.76
2022-09-02T02:22:03.455Z,61.72
2022-09-02T02:23:06.317Z,62.18
2022-09-02T02:24:09.126Z,62.29
2022-09-02T02:25:12.816Z,62.32
2022-09-02T02:26:17.308Z,62.50
2022-09-02T02:27:20.061Z,62.45
2022-09-02T02:28:22.359Z,62.40
2022-09-02T02:29:24.982Z,62.33
2022-09-02T02:30:27.635Z,62.02
2022-09-02T02:31:30.153Z,61.98
2022-09-02T02:32:32.737Z,61.74
2022-09-02T02:33:36.245Z,61.29
2022-09-02T02:34:39.335Z,61.29
2022-09-02T02:35:42.636Z,61.64
2022-09-02T02:36:45.359Z,61.27
2022-09-02T02:37:48.106Z,61.66
2022-09-02T02:38:50.260Z,61.20
2022-09-02T02:39:52.987Z,61.03
2022-09-02T02:40:56.897Z,60.82
2022-09-02T02:42:00.001Z,60.84
2022-09-02T02:43:02.152Z,60.71
2022-09-02T02:44:04.728Z,60.66
2022-09-02T02:45:09.141Z,60.29
2022-09-02T02:46:13.796Z,60.90
2022-09-02T02:47:16.824Z,60.84
2022-09-02T02:48:19.517Z,60.85
2022-09-02T02:49:21.686Z,60.76
2022-09-02T02:50:24.819Z,60.73
2022-09-02T02:51:27.737Z,61.08
2022-09-02T02:52:30.893Z,61.33
2022-09-02T02:53:33.330Z,61.11
2022-09-02T02:54:35.676Z,61.21
2022-09-02T02:55:38.327Z,61.59
2022-09-02T02:56:41.266Z,61.95
2022-09-02T02:57:43.950Z,62.47
2022-09-02T02:58:46.196Z,62.70
2022-09-02T02:59:48.884Z,63.03
2022-09-02T03:00:51.633Z,63.31
2022-09-02T03:01:54.923Z,63.36
2022-09-02T03:02:59.495Z,63.29
2022-09-02T03:04:02.369Z,62.97
2022-09-02T03:05:06.761Z,62.79
2022-09-02T03:06:09.738Z,62.57
2022-09-02T03:07:11.888Z,62.58
2022-09-02T03:08:14.748Z,62.50
2022-09-02T03:09:17.828Z,61.96
2022-09-02T03:10:21.030Z,61.82
2022-09-02T03:11:24.065Z,61.54
2022-09-02T03:12:26.235Z,61.11
2022-09-02T03:13:29.463Z,61.23
2022-09-02T03:14:32.318Z,61.36
2022-09-02T03:15:35.776Z,61.21
2022-09-02T03:16:38.157Z,61.02
2022-09-02T03:17:40.217Z,61.00
2022-09-02T03:18:42.183Z,61.03
2022-09-02T03:19:44.532Z,61.34
2022-09-02T03:20:46.978Z,61.20
2022-09-02T03:21:49.155Z,60.88
2022-09-02T03:22:54.601Z,60.97
2022-09-02T03:23:58.296Z,61.14
2022-09-02T03:25:00.984Z,60.93
2022-09-02T03:26:12.085Z,61.19
2022-09-02T03:27:14.270Z,61.03
2022-09-02T03:28:16.710Z,61.17
2022-09-02T03:29:18.957Z,61.09
2022-09-02T03:30:24.975Z,60.82
2022-09-02T03:31:27.550Z,60.94
2022-09-02T03:32:30.612Z,60.75
2022-09-02T03:33:33.799Z,60.58
2022-09-02T03:34:36.392Z,60.25
2022-09-02T03:35:41.428Z,60.19
2022-09-02T03:36:44.363Z,60.50
2022-09-02T03:37:51.370Z,60.55
2022-09-02T03:38:54.315Z,60.40
2022-09-02T03:39:57.121Z,60.59
2022-09-02T03:40:59.485Z,60.95
2022-09-02T03:42:02.213Z,61.56
2022-09-02T03:43:06.554Z,61.39
2022-09-02T03:44:10.016Z,61.49
2022-09-02T03:45:14.312Z,61.49
2022-09-02T03:46:18.789Z,61.42
2022-09-02T03:47:21.917Z,61.30
2022-09-02T03:48:26.470Z,61.60
2022-09-02T03:49:28.626Z,61.71
2022-09-02T03:50:34.825Z,62.23
2022-09-02T03:51:42.970Z,62.23
2022-09-02T03:52:45.556Z,61.81
2022-09-02T03:53:47.808Z,61.67
2022-09-02T03:54:50.555Z,61.31
2022-09-02T03:55:53.301Z,60.97
2022-09-02T03:56:55.947Z,60.89
2022-09-02T03:57:58.901Z,60.73
2022-09-02T03:59:01.528Z,60.57
2022-09-02T04:00:08.773Z,60.48
2022-09-02T04:01:19.656Z,60.42
2022-09-02T04:02:22.185Z,60.33
2022-09-02T04:03:25.053Z,60.54
2022-09-02T04:04:27.560Z,60.42
2022-09-02T04:05:30.022Z,60.46
2022-09-02T04:06:33.660Z,60.23
2022-09-02T04:07:37.331Z,60.42
2022-09-02T04:08:40.612Z,60.49
2022-09-02T04:09:46.623Z,60.21
2022-09-02T04:10:47.474Z,60.17
2022-09-02T04:11:49.708Z,60.60
2022-09-02T04:12:52.438Z,60.48
2022-09-02T04:13:54.882Z,60.39
2022-09-02T04:14:58.765Z,60.58
2022-09-02T04:16:07.451Z,60.61
2022-09-02T04:17:12.116Z,60.64
2022-09-02T04:18:16.259Z,60.67
2022-09-02T04:19:19.451Z,60.67
2022-09-02T04:20:23.120Z,60.68
2022-09-02T04:21:26.295Z,60.69
2022-09-02T04:22:28.440Z,60.77
2022-09-02T04:23:31.176Z,60.44
2022-09-02T04:24:33.820Z,60.10
2022-09-02T04:25:38.845Z,60.22
2022-09-02T04:26:44.892Z,60.26
2022-09-02T04:27:45.926Z,60.09
2022-09-02T04:28:48.981Z,59.93
2022-09-02T04:29:52.189Z,60.23
2022-09-02T04:30:54.982Z,60.89
2022-09-02T04:31:57.358Z,60.55
2022-09-02T04:32:59.427Z,60.54
2022-09-02T04:34:01.963Z,60.50
2022-09-02T04:35:04.953Z,60.82
2022-09-02T04:36:10.151Z,60.62
2022-09-02T04:37:14.722Z,60.51
2022-09-02T04:38:17.750Z,60.45
2022-09-02T04:39:20.237Z,60.48
2022-09-02T04:40:24.384Z,60.34
2022-09-02T04:41:29.612Z,60.04
2022-09-02T04:42:33.912Z,59.88
2022-09-02T04:43:36.714Z,60.47
2022-09-02T04:44:39.290Z,60.05
2022-09-02T04:45:44.856Z,60.59
2022-09-02T04:46:48.453Z,60.27
2022-09-02T04:47:53.371Z,60.43
2022-09-02T04:48:55.718Z,60.98
2022-09-02T04:49:58.233Z,60.87
2022-09-02T04:51:05.643Z,61.13
2022-09-02T04:52:08.444Z,61.22
2022-09-02T04:53:11.477Z,61.20
2022-09-02T04:54:14.438Z,61.11
2022-09-02T04:55:18.187Z,61.49
2022-09-02T04:56:25.061Z,61.40
2022-09-02T04:57:27.363Z,61.75
2022-09-02T04:58:30.990Z,61.36
2022-09-02T04:59:33.099Z,60.87
2022-09-02T05:00:39.199Z,60.98
2022-09-02T05:01:43.973Z,60.94
2022-09-02T05:02:50.084Z,60.71
2022-09-02T05:03:53.609Z,60.74
2022-09-02T05:04:56.059Z,60.64
2022-09-02T05:06:03.075Z,60.93
2022-09-02T05:07:05.272Z,61.02
2022-09-02T05:08:09.722Z,60.49
2022-09-02T05:09:12.068Z,60.94
2022-09-02T05:10:16.494Z,61.15
2022-09-02T05:11:22.169Z,60.89
2022-09-02T05:12:25.062Z,60.60
2022-09-02T05:13:29.112Z,60.32
2022-09-02T05:14:32.310Z,59.94
2022-09-02T05:15:39.736Z,59.97
2022-09-02T05:16:43.178Z,59.33
2022-09-02T05:17:47.571Z,59.00
2022-09-02T05:18:53.674Z,59.33
2022-09-02T05:19:57.565Z,59.79
2022-09-02T05:21:02.236Z,60.00
2022-09-02T05:22:05.434Z,59.81
2022-09-02T05:23:12.402Z,59.88
2022-09-02T05:24:22.148Z,59.76
2022-09-02T05:25:24.562Z,59.89
2022-09-02T05:26:27.588Z,60.65
2022-09-02T05:27:29.971Z,60.62
2022-09-02T05:28:33.771Z,61.32
2022-09-02T05:29:36.708Z,61.41
2022-09-02T05:30:41.718Z,61.92
2022-09-02T05:31:44.583Z,62.07
2022-09-02T05:32:48.242Z,62.82
2022-09-02T05:33:51.418Z,63.22
2022-09-02T05:34:55.402Z,63.07
2022-09-02T05:35:58.087Z,63.49
2022-09-02T05:37:00.602Z,63.79
2022-09-02T05:38:04.221Z,64.22
2022-09-02T05:39:06.661Z,65.09
2022-09-02T05:40:11.479Z,65.26
2022-09-02T05:41:20.408Z,65.87
2022-09-02T05:42:22.766Z,65.71
2022-09-02T05:43:26.598Z,66.59
2022-09-02T05:44:29.782Z,66.59
2022-09-02T05:45:32.796Z,67.21
2022-09-02T05:46:36.304Z,67.21
2022-09-02T05:47:38.716Z,67.21
2022-09-02T05:48:41.556Z,67.21
2022-09-02T05:49:44.043Z,67.41
2022-09-02T05:50:57.287Z,66.56
2022-09-02T05:51:57.795Z,67.26
2022-09-02T05:53:02.902Z,67.88
2022-09-02T05:54:05.246Z,67.56
2022-09-02T05:55:09.158Z,67.60
2022-09-02T05:56:13.696Z,67.53
2022-09-02T05:57:18.247Z,67.67
2022-09-02T05:58:22.338Z,67.28
2022-09-02T05:59:26.508Z,66.75
2022-09-02T06:00:31.430Z,67.16
2022-09-02T06:01:36.688Z,66.75
2022-09-02T06:02:39.018Z,67.20
2022-09-02T06:03:41.939Z,66.18
2022-09-02T06:04:47.362Z,65.72
2022-09-02T06:06:01.702Z,65.84
2022-09-02T06:07:02.225Z,66.00
2022-09-02T06:08:04.136Z,65.96
2022-09-02T06:09:07.531Z,65.71
2022-09-02T06:10:10.155Z,65.15
2022-09-02T06:11:13.224Z,65.78
2022-09-02T06:12:18.602Z,65.45
2022-09-02T06:13:21.138Z,65.92
2022-09-02T06:14:25.945Z,65.82
2022-09-02T06:15:28.541Z,65.25
2022-09-02T06:16:31.091Z,65.12
2022-09-02T06:17:34.818Z,64.90
2022-09-02T06:18:38.188Z,64.72
2022-09-02T06:19:42.312Z,64.70
2022-09-02T06:20:47.373Z,64.95
2022-09-02T06:21:49.996Z,64.93
2022-09-02T06:22:53.569Z,64.97
2022-09-02T06:23:56.033Z,64.26
2022-09-02T06:24:58.262Z,64.37
2022-09-02T06:26:01.491Z,63.93
2022-09-02T06:27:04.809Z,63.27
2022-09-02T06:28:08.014Z,63.62
2022-09-02T06:29:13.004Z,63.62
2022-09-02T06:30:15.671Z,62.70
2022-09-02T06:31:22.293Z,63.19
2022-09-02T06:32:25.041Z,62.80
2022-09-02T06:33:29.067Z,62.07
2022-09-02T06:34:31.547Z,61.77
2022-09-02T06:35:37.081Z,61.32
2022-09-02T06:36:41.277Z,61.08
2022-09-02T06:37:44.215Z,59.96
2022-09-02T06:38:49.565Z,60.73
2022-09-02T06:39:51.897Z,60.96
2022-09-02T06:40:57.693Z,59.63
2022-09-02T06:42:04.373Z,59.00
2022-09-02T06:43:08.397Z,59.61
2022-09-02T06:44:15.160Z,59.53
2022-09-02T06:45:18.773Z,60.49
2022-09-02T06:46:24.705Z,60.71
2022-09-02T06:47:28.948Z,60.36
2022-09-02T06:48:31.655Z,60.31
2022-09-02T06:49:33.902Z,59.35
2022-09-02T06:50:41.863Z,58.38
2022-09-02T06:51:48.141Z,58.68
2022-09-02T06:52:50.940Z,59.15
2022-09-02T06:53:53.850Z,59.21
2022-09-02T06:54:56.826Z,58.09
2022-09-02T06:55:58.925Z,58.67
2022-09-02T06:57:02.110Z,58.95
2022-09-02T06:58:05.258Z,57.59
2022-09-02T06:59:08.204Z,57.29
2022-09-02T07:00:19.640Z,57.28
2022-09-02T07:01:25.422Z,57.17
2022-09-02T07:02:29.054Z,57.29
2022-09-02T07:03:31.290Z,55.50
2022-09-02T07:04:35.779Z,54.50
2022-09-02T07:05:39.699Z,55.53
2022-09-02T07:06:48.127Z,55.50
2022-09-02T07:07:51.626Z,52.65
2022-09-02T07:08:53.714Z,53.50
2022-09-02T07:09:57.750Z,53.42
2022-09-02T07:11:01.596Z,53.54
2022-09-02T07:12:05.969Z,51.72
2022-09-02T07:13:10.055Z,51.99
2022-09-02T07:14:12.821Z,49.78
2022-09-02T07:15:15.362Z,49.88
2022-09-02T07:16:22.755Z,50.48
2022-09-02T07:17:23.901Z,50.91
2022-09-02T07:18:28.836Z,51.13
2022-09-02T07:19:31.397Z,50.96
2022-09-02T07:20:34.166Z,51.64
2022-09-02T07:21:42.168Z,51.87
2022-09-02T07:22:45.003Z,51.70
2022-09-02T07:23:49.071Z,51.72
2022-09-02T07:24:53.676Z,51.79
2022-09-02T07:25:56.118Z,51.46
2022-09-02T07:26:58.416Z,51.46
2022-09-02T07:28:01.557Z,51.18
2022-09-02T07:29:07.900Z,51.58
2022-09-02T07:30:11.932Z,51.35
2022-09-02T07:31:16.343Z,51.39
2022-09-02T07:32:18.807Z,51.02
2022-09-02T07:33:22.600Z,51.04
2022-09-02T07:34:25.548Z,51.10
2022-09-02T07:35:29.743Z,50.57
2022-09-02T07:36:34.740Z,50.57
2022-09-02T07:37:38.076Z,50.98
2022-09-02T07:38:42.531Z,48.60
2022-09-02T07:39:44.659Z,49.37
2022-09-02T07:40:48.019Z,49.03
2022-09-02T07:41:51.979Z,48.04
2022-09-02T07:42:58.647Z,47.92
2022-09-02T07:44:00.250Z,47.40
2022-09-02T07:45:03.804Z,47.35
2022-09-02T07:46:08.309Z,47.83
2022-09-02T07:47:11.692Z,46.87
2022-09-02T07:48:14.951Z,47.51
2022-09-02T07:49:22.061Z,46.81
2022-09-02T07:50:26.834Z,47.19
2022-09-02T07:51:30.795Z,46.97
2022-09-02T07:52:35.243Z,47.35
2022-09-02T07:53:37.750Z,47.04
2022-09-02T07:54:39.840Z,47.42
2022-09-02T07:55:43.966Z,47.17
2022-09-02T07:56:46.304Z,46.81
2022-09-02T07:57:52.387Z,47.03
2022-09-02T07:58:54.980Z,46.30
2022-09-02T07:59:57.370Z,48.02
2022-09-02T08:01:02.501Z,46.34
2022-09-02T08:02:04.962Z,45.94
2022-09-02T08:03:11.145Z,45.78
2022-09-02T08:04:16.981Z,46.17
2022-09-02T08:05:21.736Z,45.95
2022-09-02T08:06:33.664Z,48.61
2022-09-02T08:07:28.962Z,47.14
2022-09-02T08:08:31.267Z,44.91
2022-09-02T08:09:33.184Z,43.68
2022-09-02T08:10:36.821Z,44.47
2022-09-02T08:11:43.327Z,44.53
2022-09-02T08:12:48.129Z,45.09
2022-09-02T08:13:50.835Z,44.50
2022-09-02T08:14:53.086Z,44.37
2022-09-02T08:15:56.356Z,44.10
2022-09-02T08:16:59.625Z,43.94
2022-09-02T08:18:04.103Z,43.92
2022-09-02T08:19:07.890Z,44.74
2022-09-02T08:20:14.026Z,45.04
2022-09-02T08:21:16.672Z,45.65
2022-09-02T08:22:18.761Z,44.72
2022-09-02T08:23:35.980Z,44.95
2022-09-02T08:24:25.309Z,44.31
2022-09-02T08:25:27.397Z,44.84
2022-09-02T08:26:29.559Z,44.97
2022-09-02T08:27:31.961Z,43.54
2022-09-02T08:28:33.999Z,44.03
2022-09-02T08:29:36.174Z,44.15
2022-09-02T08:30:39.470Z,45.54
2022-09-02T08:31:44.166Z,44.88
2022-09-02T08:32:46.158Z,42.76
2022-09-02T08:33:48.520Z,43.07
2022-09-02T08:34:51.291Z,42.50
2022-09-02T08:35:53.362Z,42.50
2022-09-02T08:36:57.240Z,42.58
2022-09-02T08:38:01.821Z,42.88
2022-09-02T08:39:04.307Z,42.72
2022-09-02T08:40:11.204Z,41.91
2022-09-02T08:41:17.023Z,42.33
2022-09-02T08:42:31.111Z,42.15
2022-09-02T08:43:42.997Z,42.14
2022-09-02T08:44:45.768Z,41.75
2022-09-02T08:45:50.999Z,42.29
2022-09-02T08:46:56.895Z,42.16
2022-09-02T08:48:08.785Z,42.41
2022-09-02T08:49:17.284Z,41.75
2022-09-02T08:50:22.532Z,41.56
2022-09-02T08:51:37.573Z,41.61
2022-09-02T08:52:56.457Z,41.79
2022-09-02T08:54:10.954Z,40.28
2022-09-02T08:55:20.669Z,40.67
2022-09-02T08:56:23.437Z,39.54
2022-09-02T08:57:26.620Z,39.42
2022-09-02T08:58:34.981Z,38.31
2022-09-02T08:59:37.888Z,38.68
2022-09-02T09:00:43.943Z,38.51
2022-09-02T09:01:52.411Z,38.15
2022-09-02T09:03:10.608Z,38.79
2022-09-02T09:04:22.038Z,37.44
2022-09-02T09:05:30.853Z,37.99
2022-09-02T09:06:52.197Z,37.19
2022-09-02T09:08:15.791Z,36.97
2022-09-02T09:09:40.232Z,37.30
2022-09-02T09:11:04.343Z,36.80
2022-09-02T09:12:33.055Z,36.90
2022-09-02T09:14:08.574Z,36.88
2022-09-02T09:15:48.665Z,37.26
2022-09-02T09:17:00.108Z,36.28
2022-09-02T09:18:06.031Z,36.61
2022-09-02T09:19:23.389Z,36.51
2022-09-02T09:20:35.459Z,37.24
2022-09-02T09:21:38.729Z,37.55
2022-09-02T09:22:42.808Z,36.65
2022-09-02T09:23:46.934Z,37.22
2022-09-02T09:24:50.127Z,37.47
2022-09-02T09:25:59.596Z,37.49
2022-09-02T09:27:05.063Z,37.49
2022-09-02T09:28:07.151Z,36.47
2022-09-02T09:29:12.166Z,36.76
2022-09-02T09:30:15.773Z,36.53
2022-09-02T09:31:21.080Z,36.97
2022-09-02T09:32:29.542Z,36.53
2022-09-02T09:33:31.758Z,35.85
2022-09-02T09:34:56.508Z,36.09
2022-09-02T09:35:58.615Z,35.98
2022-09-02T09:37:00.989Z,35.72
2022-09-02T09:38:06.592Z,34.89
2022-09-02T09:39:28.163Z,35.22
2022-09-02T09:40:32.047Z,36.28
2022-09-02T09:41:36.662Z,35.30
2022-09-02T09:42:39.194Z,35.36
2022-09-02T09:43:43.229Z,35.54
2022-09-02T09:44:47.433Z,34.45
2022-09-02T09:45:51.388Z,35.63
2022-09-02T09:47:01.130Z,35.17
2022-09-02T09:48:24.966Z,35.46
2022-09-02T09:49:27.763Z,34.76
2022-09-02T09:50:30.110Z,34.66
2022-09-02T09:51:50.287Z,34.66
2022-09-02T09:52:37.373Z,34.62
2022-09-02T09:53:40.035Z,34.72
2022-09-02T09:54:43.752Z,34.58
2022-09-02T09:56:09.588Z,33.99
2022-09-02T09:57:18.212Z,34.67
2022-09-02T09:58:26.157Z,34.51
2022-09-02T09:59:40.692Z,35.08
2022-09-02T10:00:44.113Z,34.44
2022-09-02T10:01:51.205Z,35.04
2022-09-02T10:02:56.289Z,35.01
2022-09-02T10:04:42.218Z,34.92
2022-09-02T10:05:35.004Z,34.33
2022-09-02T10:06:43.007Z,34.71
2022-09-02T10:07:48.730Z,34.70
2022-09-02T10:08:54.486Z,34.25
2022-09-02T10:10:00.630Z,34.31
2022-09-02T10:11:09.322Z,33.86
2022-09-02T10:12:12.905Z,34.34
2022-09-02T10:13:21.813Z,34.11
2022-09-02T10:14:29.766Z,33.25
2022-09-02T10:15:39.622Z,33.45
2022-09-02T10:16:57.585Z,33.55
2022-09-02T10:18:21.136Z,33.26
2022-09-02T10:19:33.761Z,32.62
2022-09-02T10:21:16.697Z,32.83
2022-09-02T10:22:59.991Z,33.12
2022-09-02T10:23:50.327Z,33.15
2022-09-02T10:25:02.260Z,33.79
2022-09-02T10:26:15.648Z,34.08
2022-09-02T10:27:21.356Z,33.40
2022-09-02T10:28:33.087Z,32.80
2022-09-02T10:29:55.547Z,33.27
2022-09-02T10:31:10.835Z,32.95
2022-09-02T10:32:17.074Z,32.90
2022-09-02T10:33:23.101Z,32.61
2022-09-02T10:34:54.933Z,32.54
2022-09-02T10:36:06.450Z,33.15
2022-09-02T10:37:23.659Z,33.13
2022-09-02T10:38:33.191Z,33.10
2022-09-02T10:39:57.013Z,33.26
2022-09-02T10:41:03.915Z,33.12
2022-09-02T10:42:24.887Z,32.95
2022-09-02T10:43:30.520Z,33.43
2022-09-02T10:44:46.543Z,32.59
2022-09-02T10:45:52.295Z,32.86
2022-09-02T10:46:58.099Z,32.16
2022-09-02T10:48:09.282Z,32.78
2022-09-02T10:49:33.316Z,33.49
2022-09-02T10:50:50.138Z,33.57
2022-09-02T10:52:11.528Z,32.78
2022-09-02T10:53:43.269Z,33.64
2022-09-02T10:55:15.102Z,33.73
2022-09-02T10:56:31.139Z,33.80
2022-09-02T10:57:37.196Z,33.01
2022-09-02T10:58:47.600Z,32.97
2022-09-02T11:00:09.343Z,32.39
2022-09-02T11:01:21.148Z,32.69
2022-09-02T11:02:33.165Z,32.79
2022-09-02T11:03:53.964Z,32.79
2022-09-02T11:05:18.813Z,32.37
2022-09-02T11:06:31.682Z,32.25
2022-09-02T11:07:57.088Z,32.71
2022-09-02T11:09:23.186Z,32.58
2022-09-02T11:10:46.721Z,31.86
2022-09-02T11:11:58.265Z,32.17
2022-09-02T11:13:21.446Z,32.50
2022-09-02T11:14:30.173Z,32.50
2022-09-02T11:16:04.939Z,31.74
2022-09-02T11:17:32.059Z,32.10
2022-09-02T11:18:49.982Z,32.10
2022-09-02T11:20:05.822Z,32.71
2022-09-02T11:21:36.838Z,32.61
2022-09-02T11:22:54.291Z,32.32
2022-09-02T11:24:02.531Z,32.04
2022-09-02T11:25:14.261Z,32.01
2022-09-02T11:26:38.959Z,32.29
2022-09-02T11:27:49.180Z,31.97
2022-09-02T11:29:00.958Z,32.15
2022-09-02T11:30:10.143Z,31.85
2022-09-02T11:31:35.730Z,31.87
2022-09-02T11:32:44.334Z,31.77
2022-09-02T11:35:07.823Z,29.63
2022-09-02T11:36:11.543Z,30.12
2022-09-02T11:37:35.833Z,30.44
2022-09-02T11:39:00.395Z,30.50
2022-09-02T11:40:30.363Z,30.27
2022-09-02T11:41:38.443Z,30.69
2022-09-02T11:42:33.725Z,31.06
2022-09-02T11:43:48.778Z,31.16
2022-09-02T11:45:01.467Z,30.72
2022-09-02T11:46:14.067Z,30.01
2022-09-02T11:47:28.096Z,30.79
2022-09-02T11:49:02.812Z,30.40
2022-09-02T11:50:24.119Z,31.15
2022-09-02T11:51:44.926Z,31.50
2022-09-02T11:52:59.870Z,32.00
2022-09-02T11:54:04.800Z,31.84
2022-09-02T11:55:17.144Z,31.71
2022-09-02T11:56:41.583Z,31.61
2022-09-02T11:57:53.229Z,31.58
2022-09-02T11:58:55.521Z,31.17
2022-09-02T12:00:01.153Z,30.32
2022-09-02T12:01:15.902Z,30.66
2022-09-02T12:02:44.578Z,30.90
2022-09-02T12:04:16.169Z,30.14
2022-09-02T12:05:14.548Z,28.99
2022-09-02T12:06:21.222Z,29.53
2022-09-02T12:07:26.437Z,29.37
2022-09-02T12:08:35.660Z,29.05
2022-09-02T12:09:48.211Z,28.12
2022-09-02T12:10:53.988Z,28.67
2022-09-02T12:11:56.088Z,29.63
2022-09-02T12:13:01.675Z,29.37
2022-09-02T12:14:26.901Z,28.86
2022-09-02T12:15:30.869Z,29.45
2022-09-02T12:16:42.332Z,29.88
2022-09-02T12:17:50.645Z,29.42
2022-09-02T12:18:57.635Z,29.61
2022-09-02T12:19:59.733Z,29.63
2022-09-02T12:21:06.097Z,29.39
2022-09-02T12:22:20.683Z,29.64
2022-09-02T12:23:52.379Z,29.49
2022-09-02T12:24:57.133Z,28.46
2022-09-02T12:26:02.035Z,28.11
2022-09-02T12:27:07.708Z,28.92
2022-09-02T12:28:26.071Z,28.94
2022-09-02T12:29:31.979Z,29.52
2022-09-02T12:30:59.062Z,28.17
2022-09-02T12:32:02.183Z,27.54
2022-09-02T12:33:12.370Z,28.18
2022-09-02T12:34:25.122Z,28.65
2022-09-02T12:35:37.431Z,29.44
2022-09-02T12:36:45.793Z,29.63
2022-09-02T12:37:56.930Z,29.13
2022-09-02T12:39:26.287Z,30.17
2022-09-02T12:40:33.801Z,30.23
2022-09-02T12:41:39.526Z,30.24
2022-09-02T12:42:48.343Z,29.75
2022-09-02T12:43:58.435Z,29.32
2022-09-02T12:45:13.250Z,28.68
2022-09-02T12:46:28.701Z,28.60
2022-09-02T12:47:52.917Z,29.07
2022-09-02T12:49:10.967Z,27.99
2022-09-02T12:50:52.179Z,28.35
2022-09-02T12:51:57.822Z,28.40
2022-09-02T12:53:25.101Z,27.42
2022-09-02T12:54:43.101Z,27.01
2022-09-02T12:55:59.122Z,27.49
2022-09-02T12:57:02.598Z,27.32
2022-09-02T12:58:12.864Z,27.71
2022-09-02T12:59:30.646Z,27.78
2022-09-02T13:00:40.194Z,27.02
2022-09-02T13:02:01.054Z,27.30
2022-09-02T13:03:19.027Z,27.17
2022-09-02T13:04:58.633Z,27.56
2022-09-02T13:06:33.490Z,28.00
2022-09-02T13:07:42.140Z,27.47
2022-09-02T13:08:54.489Z,27.19
2022-09-02T13:10:23.118Z,26.61
2022-09-02T13:11:38.285Z,26.32
2022-09-02T13:13:12.429Z,25.58
2022-09-02T13:14:27.012Z,25.74
2022-09-02T13:16:04.585Z,26.09
2022-09-02T13:17:36.209Z,26.68
2022-09-02T13:20:13.229Z,28.21
2022-09-02T13:21:45.960Z,28.00
2022-09-02T13:22:54.444Z,29.05
2022-09-02T13:24:01.443Z,28.37
2022-09-02T13:25:31.445Z,28.13
2022-09-02T13:26:53.378Z,28.61
2022-09-02T13:28:17.680Z,28.00
2022-09-02T13:29:39.676Z,27.90
2022-09-02T13:30:54.857Z,28.13
2022-09-02T13:32:16.314Z,28.59
2022-09-02T13:33:18.948Z,27.03
2022-09-02T13:34:22.524Z,27.05
2022-09-02T13:35:27.244Z,27.23
2022-09-02T13:36:33.114Z,27.23
2022-09-02T13:37:38.342Z,26.84
2022-09-02T13:38:40.569Z,26.59
2022-09-02T13:39:42.764Z,26.38
2022-09-02T13:40:46.284Z,26.28
2022-09-02T13:41:49.073Z,26.40
2022-09-02T13:42:54.348Z,26.51
2022-09-02T13:44:12.897Z,26.29
2022-09-02T13:45:18.681Z,25.97
2022-09-02T13:46:22.674Z,26.01
2022-09-02T13:47:27.406Z,26.19
2022-09-02T13:48:34.787Z,26.27
2022-09-02T13:49:40.491Z,26.82
2022-09-02T13:50:45.720Z,26.40
2022-09-02T13:51:50.320Z,26.60
2022-09-02T13:55:05.858Z,25.85
2022-09-02T13:56:11.573Z,25.96
2022-09-02T13:57:17.277Z,24.96
2022-09-02T13:58:32.241Z,25.22
2022-09-02T13:59:37.977Z,24.42
2022-09-02T14:00:41.119Z,24.62
2022-09-02T14:01:43.596Z,24.44
2022-09-02T14:02:59.673Z,24.11
2022-09-02T14:05:17.036Z,24.61
2022-09-02T14:06:24.882Z,25.04
2022-09-02T14:07:39.002Z,24.80
2022-09-02T14:08:41.720Z,24.75
2022-09-02T14:09:45.340Z,24.76
2022-09-02T14:10:50.389Z,25.06
2022-09-02T14:11:54.410Z,24.99
2022-09-02T14:12:58.229Z,25.58
2022-09-02T14:14:00.543Z,26.14
2022-09-02T14:15:05.045Z,25.71
2022-09-02T14:17:38.951Z,25.37
2022-09-02T14:18:45.661Z,25.58
2022-09-02T14:19:50.724Z,25.98
2022-09-02T14:21:19.062Z,26.19
2022-09-02T14:22:28.050Z,26.16
2022-09-02T14:23:32.258Z,25.88
2022-09-02T14:24:39.886Z,26.03
2022-09-02T14:25:52.753Z,26.23
2022-09-02T14:26:58.992Z,25.79
2022-09-02T14:28:05.571Z,25.72
2022-09-02T14:29:10.556Z,26.09
2022-09-02T14:30:14.916Z,26.17
2022-09-02T14:31:28.902Z,25.69